Terminal Aerodrome Forecast
Issued by NWS

Home | Current Version | Previous Version | Text Only | Print | Product List | Glossary On
Versions: 1 2 3 4 5 6 7 8 9 10 11 12 13 14 15 16 17 18
541
FTUS41 KPHI 301723
TAFPNE
TAF
KPNE 301723Z 3018/3118 17006KT P6SM BKN035
      TEMPO 3019/3023 5SM -TSRA BR OVC025CB
     FM302300 16006KT 5SM SHRA BR OVC035
     FM310200 14004KT 5SM SHRA BR OVC025
     FM310600 12004KT 3SM SHRA BR OVC010
     FM311500 17006KT P6SM BKN035=

USA.gov is the U.S. government's official web portal to all federal, state and local government web resources and services.